Time;durP1;ratioP1;P1;durP2;ratioP2;P2;SDS_P1;SDS_P2;PMS_P1;PMS_P2;Temp;Humidity;BMP_temperature;BMP_pressure;BME280_temperature;BME280_humidity;BME280_pressure;Samples;Min_cycle;Max_cycle;Signal;HPM_P1;HPM_P2
2023/12/14 00:01:42;;;;;;;5.30;3.70;;;;;;;2.57;nan;-23887.72;5010909;28;20180;-63
2023/12/14 00:04:08;;;;;;;6.97;4.40;;;;;;;2.45;nan;-23884.44;5011067;28;20176;-63
2023/12/14 00:06:33;;;;;;;3.37;3.07;;;;;;;2.10;nan;-23874.47;5011652;28;20640;-64
2023/12/14 00:08:58;;;;;;;7.03;4.57;;;;;;;2.43;nan;-23883.75;5011939;28;20176;-63
2023/12/14 00:11:24;;;;;;;3.70;3.40;;;;;;;2.37;nan;-23882.16;5011217;28;20231;-63
2023/12/14 00:13:49;;;;;;;7.90;4.20;;;;;;;2.27;nan;-23879.31;5011037;28;20191;-63
2023/12/14 00:16:15;;;;;;;4.60;4.20;;;;;;;2.32;nan;-23880.75;5011024;28;20179;-64
2023/12/14 00:18:40;;;;;;;5.60;4.60;;;;;;;2.08;nan;-23873.88;5010589;28;20306;-64
2023/12/14 00:21:06;;;;;;;4.03;3.17;;;;;;;2.14;nan;-23875.59;5011040;28;20176;-64
2023/12/14 00:23:31;;;;;;;3.77;3.47;;;;;;;2.23;nan;-23878.16;5010817;28;20214;-64
2023/12/14 00:25:56;;;;;;;4.30;3.90;;;;;;;2.34;nan;-23881.31;5010926;28;20253;-64
2023/12/14 00:28:22;;;;;;;3.73;3.43;;;;;;;2.33;nan;-23881.03;5011166;28;20334;-64
2023/12/14 00:30:48;;;;;;;6.77;5.17;;;;;;;2.41;nan;-23883.31;5010502;28;20664;-63
2023/12/14 00:33:13;;;;;;;5.17;3.63;;;;;;;2.12;nan;-23875.03;5010696;28;20234;-63
2023/12/14 00:35:39;;;;;;;2.70;2.50;;;;;;;2.38;nan;-23882.44;5011096;28;20176;-64
2023/12/14 00:38:04;;;;;;;4.17;3.20;;;;;;;2.40;nan;-23882.88;5010512;28;20196;-63
2023/12/14 00:40:29;;;;;;;3.43;3.17;;;;;;;2.11;nan;-23874.75;5010660;28;20173;-64
2023/12/14 00:42:55;;;;;;;4.57;4.10;;;;;;;2.46;nan;-23884.75;5010699;28;20604;-64
2023/12/14 00:45:20;;;;;;;5.40;4.47;;;;;;;2.23;nan;-23878.16;5010772;28;20176;-65
2023/12/14 00:47:45;;;;;;;6.67;4.53;;;;;;;2.48;nan;-23885.31;5010840;28;20599;-64
2023/12/14 00:50:11;;;;;;;4.40;3.83;;;;;;;2.52;nan;-23886.44;5010502;28;20230;-63
2023/12/14 00:52:36;;;;;;;4.43;3.70;;;;;;;2.54;nan;-23887.03;5010267;28;20586;-63
2023/12/14 00:55:02;;;;;;;4.33;2.93;;;;;;;2.51;nan;-23886.16;5013508;28;20187;-63
2023/12/14 00:57:27;;;;;;;4.27;3.87;;;;;;;2.55;nan;-23887.31;5014271;28;20179;-63
2023/12/14 00:59:53;;;;;;;4.63;3.63;;;;;;;2.27;nan;-23879.16;5014283;28;20722;-64
2023/12/14 01:02:18;;;;;;;4.10;3.10;;;;;;;2.42;nan;-23883.59;5014112;28;20214;-64
2023/12/14 01:04:43;;;;;;;3.00;2.73;;;;;;;2.24;nan;-23878.47;5014213;28;20176;-64
2023/12/14 01:07:09;;;;;;;2.43;2.33;;;;;;;2.37;nan;-23882.16;5013764;28;20192;-64
2023/12/14 01:09:35;;;;;;;3.80;3.50;;;;;;;2.44;nan;-23884.03;5014363;28;20180;-64
2023/12/14 01:12:00;;;;;;;4.13;3.10;;;;;;;2.50;nan;-23885.88;5015220;28;20607;-63
2023/12/14 01:14:26;;;;;;;3.07;2.60;;;;;;;2.49;nan;-23885.44;5013732;28;20180;-63
2023/12/14 01:16:51;;;;;;;3.30;2.80;;;;;;;2.35;nan;-23881.59;5014017;28;20176;-64
2023/12/14 01:19:16;;;;;;;2.73;2.53;;;;;;;2.52;nan;-23886.44;5013585;28;20683;-64
2023/12/14 01:21:42;;;;;;;5.33;3.70;;;;;;;2.25;nan;-23878.59;5013664;28;20226;-63
2023/12/14 01:24:08;;;;;;;2.80;2.60;;;;;;;2.41;nan;-23883.16;5013829;28;20555;-63
2023/12/14 01:26:33;;;;;;;4.13;3.00;;;;;;;2.45;nan;-23884.44;5013841;28;20559;-64
2023/12/14 01:28:59;;;;;;;3.63;2.87;;;;;;;2.75;nan;-23892.72;5013943;28;20249;-64
2023/12/14 01:31:25;;;;;;;2.77;2.60;;;;;;;2.46;nan;-23884.59;5013694;28;20290;-64
2023/12/14 01:33:51;;;;;;;2.70;2.50;;;;;;;2.64;nan;-23889.72;5013708;28;20646;-64
2023/12/14 01:36:24;;;;;;;3.17;2.93;;;;;;;2.55;nan;-23887.16;5013267;28;20198;-64
2023/12/14 01:38:50;;;;;;;5.17;3.73;;;;;;;2.34;nan;-23881.16;5013463;28;20207;-64
2023/12/14 01:41:16;;;;;;;3.80;3.13;;;;;;;2.41;nan;-23883.16;5013193;28;20574;-64
2023/12/14 01:43:42;;;;;;;4.07;3.67;;;;;;;2.38;nan;-23882.31;5011965;28;20229;-64
2023/12/14 01:46:07;;;;;;;3.07;2.87;;;;;;;2.32;nan;-23880.75;5013767;28;20169;-65
2023/12/14 01:48:32;;;;;;;2.63;2.50;;;;;;;2.35;nan;-23881.47;5013066;28;20652;-65
2023/12/14 01:50:58;;;;;;;5.03;2.80;;;;;;;2.38;nan;-23882.44;5013362;28;20172;-64
2023/12/14 01:53:23;;;;;;;2.53;2.33;;;;;;;2.50;nan;-23885.72;5013315;28;20176;-63
2023/12/14 01:55:49;;;;;;;2.90;2.63;;;;;;;2.45;nan;-23884.44;5013252;28;20582;-64
2023/12/14 01:58:14;;;;;;;4.20;3.70;;;;;;;2.41;nan;-23883.31;5013329;28;20204;-64
2023/12/14 02:00:49;;;;;;;3.27;2.97;;;;;;;2.40;nan;-23882.88;5013175;28;20176;-64
2023/12/14 02:03:15;;;;;;;6.30;3.97;;;;;;;2.11;nan;-23874.88;5012969;28;20247;-65
2023/12/14 02:05:40;;;;;;;3.93;3.60;;;;;;;2.34;nan;-23881.31;5012221;28;20267;-63
2023/12/14 02:08:06;;;;;;;3.43;3.07;;;;;;;2.30;nan;-23880.03;5013570;28;20621;-65
2023/12/14 02:10:31;;;;;;;3.67;3.27;;;;;;;2.28;nan;-23879.44;5012820;28;20168;-63
2023/12/14 02:12:56;;;;;;;3.93;3.53;;;;;;;1.99;nan;-23871.47;5012798;28;20215;-64
2023/12/14 02:15:22;;;;;;;2.60;2.17;;;;;;;2.07;nan;-23873.75;5014467;28;20176;-64
2023/12/14 02:17:47;;;;;;;3.30;2.60;;;;;;;2.10;nan;-23874.47;5012446;28;20606;-64
2023/12/14 02:20:13;;;;;;;4.03;3.70;;;;;;;2.10;nan;-23874.59;5012961;28;20203;-64
2023/12/14 02:22:54;;;;;;;4.60;4.20;;;;;;;1.88;nan;-23868.16;5012594;28;20176;-64
2023/12/14 02:25:21;;;;;;;2.20;2.10;;;;;;;1.96;nan;-23870.59;5012695;28;20171;-64
2023/12/14 02:27:47;;;;;;;5.63;3.57;;;;;;;2.05;nan;-23873.03;5012406;28;20186;-64
2023/12/14 02:30:13;;;;;;;3.53;3.23;;;;;;;1.76;nan;-23864.88;5012522;28;20227;-64
2023/12/14 02:32:39;;;;;;;3.70;3.40;;;;;;;1.67;nan;-23862.47;5012156;28;20183;-64
2023/12/14 02:35:06;;;;;;;4.50;3.43;;;;;;;1.66;nan;-23862.19;5012131;28;20631;-63
2023/12/14 02:37:32;;;;;;;3.40;2.97;;;;;;;1.85;nan;-23867.31;5012593;28;20211;-64
2023/12/14 02:39:57;;;;;;;4.87;4.37;;;;;;;1.63;nan;-23861.31;5012295;28;20215;-63
2023/12/14 02:42:23;;;;;;;2.80;2.40;;;;;;;1.66;nan;-23862.03;5012392;28;20610;-64
2023/12/14 02:44:49;;;;;;;3.97;3.57;;;;;;;1.92;nan;-23869.31;5012456;28;20487;-64
2023/12/14 02:47:15;;;;;;;5.30;3.53;;;;;;;1.63;nan;-23861.31;5012239;28;20186;-64
2023/12/14 02:49:41;;;;;;;6.67;4.37;;;;;;;1.71;nan;-23863.47;5012261;28;20263;-64
2023/12/14 02:52:06;;;;;;;4.67;3.77;;;;;;;1.63;nan;-23861.31;5012279;28;20172;-64
2023/12/14 02:54:31;;;;;;;4.13;3.40;;;;;;;1.88;nan;-23868.31;5024300;28;20665;-63
2023/12/14 02:56:57;;;;;;;5.40;3.80;;;;;;;1.88;nan;-23868.16;5031671;28;20179;-63
2023/12/14 02:59:22;;;;;;;4.10;3.60;;;;;;;1.71;nan;-23863.59;5031633;28;20701;-64
2023/12/14 03:01:47;;;;;;;6.87;2.97;;;;;;;1.70;nan;-23863.31;5031854;28;20216;-65
2023/12/14 03:04:13;;;;;;;6.93;3.47;;;;;;;1.86;nan;-23867.59;5031526;28;20273;-64
2023/12/14 03:06:38;;;;;;;3.93;3.07;;;;;;;1.76;nan;-23865.03;5031819;28;20621;-63
2023/12/14 03:09:04;;;;;;;3.83;3.40;;;;;;;1.75;nan;-23864.75;5031832;28;20245;-63
2023/12/14 03:11:29;;;;;;;3.50;3.20;;;;;;;1.47;nan;-23856.75;5031192;28;20176;-64
2023/12/14 03:13:54;;;;;;;2.63;2.43;;;;;;;1.69;nan;-23862.88;5031561;28;20246;-64
2023/12/14 03:16:20;;;;;;;6.70;3.60;;;;;;;1.68;nan;-23862.59;5030926;28;20171;-64
2023/12/14 03:18:45;;;;;;;6.37;4.33;;;;;;;1.61;nan;-23860.75;5033980;28;20203;-63
2023/12/14 03:21:10;;;;;;;4.93;3.67;;;;;;;1.42;nan;-23855.16;5031534;28;20179;-63
2023/12/14 03:23:36;;;;;;;6.77;3.67;;;;;;;1.66;nan;-23862.03;5031144;28;20646;-65
2023/12/14 03:26:02;;;;;;;11.33;2.70;;;;;;;1.60;nan;-23860.47;5031307;28;20187;-66
2023/12/14 03:28:28;;;;;;;3.53;3.23;;;;;;;1.37;nan;-23853.88;5031033;28;20620;-64
2023/12/14 03:30:53;;;;;;;5.93;3.53;;;;;;;1.36;nan;-23853.59;5031185;28;20230;-64
2023/12/14 03:33:19;;;;;;;3.33;2.73;;;;;;;1.34;nan;-23853.03;5030455;28;20635;-63
2023/12/14 03:35:46;;;;;;;3.83;3.20;;;;;;;1.64;nan;-23861.59;5030801;28;20175;-63
2023/12/14 03:38:14;;;;;;;2.87;2.37;;;;;;;1.37;nan;-23853.88;5031101;28;20203;-63
2023/12/14 03:40:39;;;;;;;2.70;2.47;;;;;;;1.62;nan;-23861.03;5031300;28;20214;-65
2023/12/14 03:43:05;;;;;;;4.57;3.60;;;;;;;1.61;nan;-23860.59;5031223;28;20183;-64
2023/12/14 03:45:30;;;;;;;3.37;3.07;;;;;;;1.54;nan;-23858.75;5031163;28;20179;-63
2023/12/14 03:47:56;;;;;;;2.73;2.53;;;;;;;1.60;nan;-23860.47;5031129;28;20176;-64
2023/12/14 03:50:22;;;;;;;3.40;3.10;;;;;;;1.59;nan;-23860.16;5030930;28;20179;-64
2023/12/14 03:52:47;;;;;;;2.97;2.77;;;;;;;1.68;nan;-23862.59;4988724;28;20241;-67
2023/12/14 03:55:15;;;;;;;5.03;3.63;;;;;;;1.71;nan;-23863.59;4330565;28;21412;-66
2023/12/14 03:57:40;;;;;;;2.53;2.33;;;;;;;1.62;nan;-23861.03;4582428;28;20577;-64
2023/12/14 04:00:09;;;;;;;5.00;2.83;;;;;;;1.60;nan;-23860.31;5030739;28;20175;-64
2023/12/14 04:02:35;;;;;;;3.53;3.00;;;;;;;1.57;nan;-23859.47;5029338;28;20179;-63
2023/12/14 04:05:00;;;;;;;3.30;3.00;;;;;;;1.46;nan;-23856.47;5031401;28;20187;-63
2023/12/14 04:07:25;;;;;;;3.23;2.80;;;;;;;1.52;nan;-23858.16;5030773;28;20182;-64
2023/12/14 04:09:51;;;;;;;1.80;1.70;;;;;;;1.82;nan;-23866.59;5030811;28;20258;-63
2023/12/14 04:12:16;;;;;;;3.17;2.57;;;;;;;1.57;nan;-23859.59;5030604;28;20647;-63
2023/12/14 04:14:41;;;;;;;2.93;2.53;;;;;;;1.69;nan;-23862.88;5029695;28;20175;-64
2023/12/14 04:17:07;;;;;;;3.33;2.53;;;;;;;1.53;nan;-23858.44;5030551;28;20175;-64
2023/12/14 04:19:32;;;;;;;3.53;3.03;;;;;;;1.77;nan;-23865.16;5030501;28;20306;-64
2023/12/14 04:21:58;;;;;;;2.40;2.10;;;;;;;1.68;nan;-23862.59;5032547;28;20631;-64
2023/12/14 04:24:23;;;;;;;6.87;3.20;;;;;;;1.52;nan;-23858.16;5030658;28;20298;-64
2023/12/14 04:26:49;;;;;;;3.20;2.20;;;;;;;1.40;nan;-23854.59;5029210;28;20631;-64
2023/12/14 04:29:14;;;;;;;2.60;2.40;;;;;;;1.40;nan;-23854.75;5031952;28;20264;-63
2023/12/14 04:31:39;;;;;;;2.10;1.90;;;;;;;1.18;nan;-23848.44;5034116;28;20363;-64
2023/12/14 04:34:05;;;;;;;4.97;2.73;;;;;;;1.52;nan;-23858.16;5034519;28;20216;-64
2023/12/14 04:36:30;;;;;;;5.40;4.23;;;;;;;1.48;nan;-23856.88;5034636;28;20172;-64
2023/12/14 04:38:56;;;;;;;4.03;3.73;;;;;;;1.34;nan;-23853.03;5034232;28;20191;-64
2023/12/14 04:41:21;;;;;;;2.40;2.20;;;;;;;1.22;nan;-23849.59;5034143;28;20183;-64
2023/12/14 04:43:47;;;;;;;2.07;1.87;;;;;;;1.39;nan;-23854.44;5034108;28;20602;-64
2023/12/14 04:46:12;;;;;;;1.97;1.87;;;;;;;1.33;nan;-23852.88;5034461;28;20251;-63
2023/12/14 04:48:38;;;;;;;2.10;1.93;;;;;;;1.15;nan;-23847.75;5034171;28;20174;-64
2023/12/14 04:51:04;;;;;;;2.03;1.90;;;;;;;1.14;nan;-23847.31;5033975;28;20225;-63
2023/12/14 04:53:29;;;;;;;2.37;2.17;;;;;;;1.36;nan;-23853.59;5034082;28;20210;-63
2023/12/14 04:55:54;;;;;;;2.73;2.50;;;;;;;1.41;nan;-23855.03;5033857;28;20286;-64
2023/12/14 04:58:20;;;;;;;1.70;1.60;;;;;;;1.31;nan;-23852.31;5033600;28;20195;-63
2023/12/14 05:00:45;;;;;;;2.87;2.63;;;;;;;1.42;nan;-23855.16;5033849;28;20186;-65
2023/12/14 05:03:11;;;;;;;4.23;2.43;;;;;;;1.22;nan;-23849.72;5034113;28;20206;-64
2023/12/14 05:05:36;;;;;;;3.33;2.43;;;;;;;1.26;nan;-23850.72;5033578;28;20183;-62
2023/12/14 05:08:01;;;;;;;2.93;2.23;;;;;;;1.29;nan;-23851.75;5033647;28;20270;-63
2023/12/14 05:10:27;;;;;;;9.93;2.70;;;;;;;1.48;nan;-23856.88;5031873;28;20183;-62
2023/12/14 05:12:52;;;;;;;2.80;2.37;;;;;;;1.25;nan;-23850.59;5033691;28;20190;-64
2023/12/14 05:15:17;;;;;;;2.57;2.40;;;;;;;1.22;nan;-23849.59;5033422;28;20180;-65
2023/12/14 05:17:45;;;;;;;4.70;2.90;;;;;;;1.46;nan;-23856.47;5033192;28;20186;-64
2023/12/14 05:20:11;;;;;;;3.07;2.43;;;;;;;1.38;nan;-23854.16;5033309;28;20257;-63
2023/12/14 05:22:36;;;;;;;2.33;2.03;;;;;;;1.14;nan;-23847.31;5033637;28;20225;-63
2023/12/14 05:25:02;;;;;;;3.47;3.17;;;;;;;1.18;nan;-23848.59;5034386;28;20176;-63
2023/12/14 05:27:27;;;;;;;4.17;3.40;;;;;;;1.43;nan;-23855.47;5032647;28;20175;-64
2023/12/14 05:29:53;;;;;;;4.23;3.23;;;;;;;1.27;nan;-23851.03;5032960;28;20172;-64
2023/12/14 05:32:18;;;;;;;3.27;2.97;;;;;;;1.49;nan;-23857.16;5033643;28;20202;-65
2023/12/14 05:34:43;;;;;;;3.17;2.80;;;;;;;1.52;nan;-23858.16;5033714;28;20266;-64
2023/12/14 05:37:09;;;;;;;2.23;2.03;;;;;;;1.41;nan;-23855.03;5033103;28;20198;-64
2023/12/14 05:39:34;;;;;;;3.23;2.57;;;;;;;1.33;nan;-23852.75;5032787;28;20234;-64
2023/12/14 05:42:00;;;;;;;3.60;2.97;;;;;;;1.35;nan;-23853.31;5032302;28;20600;-64
2023/12/14 05:44:25;;;;;;;1.97;1.87;;;;;;;1.57;nan;-23859.47;5033017;28;20172;-65
2023/12/14 05:46:51;;;;;;;3.23;2.83;;;;;;;1.49;nan;-23857.31;5032902;28;20654;-66
2023/12/14 05:49:16;;;;;;;2.13;2.03;;;;;;;1.59;nan;-23860.03;5033140;28;20303;-65
2023/12/14 05:51:42;;;;;;;3.10;2.90;;;;;;;1.57;nan;-23859.47;5033059;28;20231;-65
2023/12/14 05:54:07;;;;;;;1.80;1.70;;;;;;;1.61;nan;-23860.75;5026852;28;20309;-65
2023/12/14 05:56:32;;;;;;;2.63;2.43;;;;;;;1.39;nan;-23854.31;5021252;28;20183;-66
2023/12/14 05:58:59;;;;;;;5.20;4.30;;;;;;;1.53;nan;-23858.31;5028279;28;20211;-65
2023/12/14 06:01:24;;;;;;;2.97;2.77;;;;;;;1.40;nan;-23854.59;5024260;28;20180;-64
2023/12/14 06:03:50;;;;;;;5.20;2.77;;;;;;;1.39;nan;-23854.44;5022763;28;20178;-66
2023/12/14 06:06:15;;;;;;;5.43;2.67;;;;;;;1.51;nan;-23857.88;5023827;28;20186;-65
2023/12/14 06:08:41;;;;;;;3.77;3.47;;;;;;;1.78;nan;-23865.47;5031740;28;20183;-65
2023/12/14 06:11:07;;;;;;;2.20;2.03;;;;;;;1.84;nan;-23867.19;5031367;28;20214;-65
2023/12/14 06:13:34;;;;;;;2.90;2.70;;;;;;;1.58;nan;-23859.88;5031862;28;20262;-65
2023/12/14 06:15:59;;;;;;;3.30;2.53;;;;;;;1.72;nan;-23863.75;5031978;28;20534;-64
2023/12/14 06:18:25;;;;;;;3.87;3.47;;;;;;;1.62;nan;-23860.88;5031986;28;20247;-65
2023/12/14 06:20:50;;;;;;;2.47;2.27;;;;;;;1.63;nan;-23861.16;5031834;28;20247;-64
2023/12/14 06:23:16;;;;;;;3.57;3.27;;;;;;;1.96;nan;-23870.59;5031478;28;20191;-66
2023/12/14 06:25:41;;;;;;;6.73;5.03;;;;;;;1.85;nan;-23867.31;5031782;28;20669;-65
2023/12/14 06:28:06;;;;;;;3.43;2.70;;;;;;;1.80;nan;-23866.03;5032582;28;20202;-64
2023/12/14 06:30:32;;;;;;;2.27;2.07;;;;;;;2.13;nan;-23875.47;5033350;28;20296;-64
2023/12/14 06:32:57;;;;;;;2.10;2.00;;;;;;;1.93;nan;-23869.59;5031449;28;20255;-64
2023/12/14 06:35:23;;;;;;;3.57;3.27;;;;;;;2.06;nan;-23873.47;5032177;28;20167;-64
2023/12/14 06:37:48;;;;;;;6.70;4.30;;;;;;;2.27;nan;-23879.31;5031743;28;20171;-64
2023/12/14 06:40:14;;;;;;;2.70;2.50;;;;;;;2.27;nan;-23879.31;5032136;28;20249;-64
2023/12/14 06:42:39;;;;;;;2.90;2.70;;;;;;;2.08;nan;-23873.88;5030807;28;20244;-66
2023/12/14 06:45:05;;;;;;;2.03;1.93;;;;;;;2.38;nan;-23882.31;5031735;28;20283;-64
2023/12/14 06:47:30;;;;;;;8.00;4.07;;;;;;;2.38;nan;-23882.44;5031027;28;20644;-64
2023/12/14 06:49:59;;;;;;;3.53;3.17;;;;;;;2.34;nan;-23881.16;5031504;28;20180;-65
2023/12/14 06:52:24;;;;;;;3.43;3.13;;;;;;;2.21;nan;-23877.75;5031088;28;20175;-65
2023/12/14 06:54:50;;;;;;;2.93;2.70;;;;;;;2.50;nan;-23885.88;5029391;28;20290;-66
2023/12/14 06:57:15;;;;;;;3.97;2.50;;;;;;;2.48;nan;-23885.31;5031580;28;20190;-65
2023/12/14 06:59:40;;;;;;;3.80;2.70;;;;;;;2.63;nan;-23889.59;5030697;28;20247;-65
2023/12/14 07:02:07;;;;;;;4.27;3.27;;;;;;;2.40;nan;-23882.88;5030486;28;20194;-64
2023/12/14 07:04:32;;;;;;;2.03;1.93;;;;;;;2.54;nan;-23886.88;5030583;28;20183;-65
2023/12/14 07:06:59;;;;;;;1.97;1.87;;;;;;;2.63;nan;-23889.44;5031160;28;20191;-65
2023/12/14 07:09:25;;;;;;;2.57;2.40;;;;;;;2.79;nan;-23893.88;5031095;28;20289;-65
2023/12/14 07:11:51;;;;;;;2.77;2.50;;;;;;;2.86;nan;-23895.88;5030920;28;20262;-64
2023/12/14 07:14:16;;;;;;;4.80;2.93;;;;;;;2.64;nan;-23889.88;5030950;28;20166;-63
2023/12/14 07:16:42;;;;;;;2.40;2.20;;;;;;;2.77;nan;-23893.44;5031218;28;20168;-65
2023/12/14 07:19:07;;;;;;;3.57;3.27;;;;;;;3.00;nan;-23900.00;5030804;28;20265;-65
2023/12/14 07:21:33;;;;;;;3.67;2.87;;;;;;;2.85;nan;-23895.59;5026119;28;20662;-65
2023/12/14 07:23:58;;;;;;;3.93;3.63;;;;;;;3.20;nan;-23905.41;5027949;28;20183;-65
2023/12/14 07:26:24;;;;;;;2.93;2.67;;;;;;;3.04;nan;-23901.00;5028412;28;20270;-65
2023/12/14 07:28:50;;;;;;;3.13;2.53;;;;;;;3.31;nan;-23908.72;5029124;28;20845;-65
2023/12/14 07:31:15;;;;;;;3.57;3.23;;;;;;;3.47;nan;-23913.13;5029755;28;20219;-65
2023/12/14 07:33:40;;;;;;;1.77;1.67;;;;;;;3.40;nan;-23911.28;5030057;28;20164;-65
2023/12/14 07:36:06;;;;;;;2.17;2.07;;;;;;;3.76;nan;-23921.38;5029244;28;20290;-65
2023/12/14 07:38:32;;;;;;;2.10;2.00;;;;;;;3.74;nan;-23920.81;5031325;28;20198;-66
2023/12/14 07:40:57;;;;;;;5.50;3.00;;;;;;;3.64;nan;-23917.81;5031067;28;20184;-65
2023/12/14 07:43:23;;;;;;;4.10;2.50;;;;;;;3.89;nan;-23924.94;5030450;28;20191;-65
2023/12/14 07:45:49;;;;;;;3.73;3.43;;;;;;;3.88;nan;-23924.81;5030448;28;20183;-65
2023/12/14 07:48:14;;;;;;;1.87;1.77;;;;;;;4.21;nan;-23934.06;5029625;28;20278;-66
2023/12/14 07:50:40;;;;;;;4.43;3.60;;;;;;;4.08;nan;-23930.38;5031070;28;20187;-66
2023/12/14 07:53:05;;;;;;;2.80;2.60;;;;;;;4.40;nan;-23939.47;5030775;28;20179;-64
2023/12/14 07:55:31;;;;;;;3.67;2.63;;;;;;;4.55;nan;-23943.47;5030620;28;20555;-65
2023/12/14 07:57:56;;;;;;;5.83;3.77;;;;;;;4.60;nan;-23944.88;5031276;28;20175;-65
2023/12/14 08:00:22;;;;;;;3.03;2.73;;;;;;;4.82;nan;-23951.16;5030955;28;20175;-65
2023/12/14 08:02:47;;;;;;;3.93;3.33;;;;;;;4.87;nan;-23952.56;5030510;28;20170;-66
2023/12/14 08:05:13;;;;;;;9.10;3.47;;;;;;;4.99;nan;-23955.84;5030654;28;20262;-66
2023/12/14 08:07:38;;;;;;;4.27;2.50;;;;;;;4.97;nan;-23955.28;5030699;28;20268;-65
2023/12/14 08:10:04;;;;;;;3.33;3.03;;;;;;;4.94;nan;-23954.56;5030509;28;20183;-66
2023/12/14 08:12:30;;;;;;;4.03;2.47;;;;;;;5.22;nan;-23962.38;5031239;28;20175;-65
2023/12/14 08:14:55;;;;;;;4.13;2.53;;;;;;;5.17;nan;-23961.09;5030491;28;20198;-66
2023/12/14 08:17:21;;;;;;;3.63;2.80;;;;;;;5.30;nan;-23964.81;5030673;28;20221;-66
2023/12/14 08:19:46;;;;;;;4.10;2.70;;;;;;;5.34;nan;-23965.78;5030845;28;20202;-68
2023/12/14 08:22:12;;;;;;;3.47;2.83;;;;;;;5.65;nan;-23974.47;5030683;28;20250;-66
2023/12/14 08:24:41;;;;;;;2.93;2.63;;;;;;;5.73;nan;-23976.75;5030426;28;20176;-65
2023/12/14 08:27:07;;;;;;;2.73;2.50;;;;;;;5.50;nan;-23970.22;5030728;28;20175;-66
2023/12/14 08:29:32;;;;;;;2.53;2.00;;;;;;;5.69;nan;-23975.75;5030392;28;20179;-64
2023/12/14 08:31:59;;;;;;;2.57;2.37;;;;;;;5.68;nan;-23975.47;5030995;28;20219;-66
2023/12/14 08:34:25;;;;;;;2.70;2.20;;;;;;;5.86;nan;-23980.28;5034008;28;20175;-66
2023/12/14 08:36:50;;;;;;;2.80;2.53;;;;;;;5.81;nan;-23979.00;5030679;28;20634;-65
2023/12/14 08:39:16;;;;;;;2.60;2.40;;;;;;;5.90;nan;-23981.44;5030297;28;20198;-65
2023/12/14 08:41:42;;;;;;;2.10;2.00;;;;;;;6.02;nan;-23984.97;5030135;28;20594;-66
2023/12/14 08:44:08;;;;;;;2.50;2.33;;;;;;;6.17;nan;-23989.25;5030093;28;20172;-65
2023/12/14 08:46:44;;;;;;;5.13;2.80;;;;;;;6.26;nan;-23991.53;5029147;28;20187;-66
2023/12/14 08:49:10;;;;;;;3.63;2.70;;;;;;;6.32;nan;-23993.38;5030478;28;20171;-66
2023/12/14 08:51:36;;;;;;;2.23;2.10;;;;;;;6.17;nan;-23989.25;5030555;28;20178;-66
2023/12/14 08:54:02;;;;;;;4.57;3.10;;;;;;;6.24;nan;-23990.94;5030054;28;20172;-67
2023/12/14 08:56:27;;;;;;;2.00;1.87;;;;;;;6.64;nan;-24002.44;5029065;28;20172;-66
2023/12/14 08:58:52;;;;;;;3.20;2.90;;;;;;;6.77;nan;-24006.00;5030497;28;20203;-65
2023/12/14 09:01:22;;;;;;;4.37;3.47;;;;;;;6.82;nan;-24007.28;5030145;28;20220;-65
2023/12/14 09:03:49;;;;;;;3.23;2.73;;;;;;;7.18;nan;-23698.63;5030581;28;20180;-66
2023/12/14 09:06:16;;;;;;;3.13;2.83;;;;;;;7.18;nan;-23381.84;5029810;28;20275;-65
2023/12/14 09:08:41;;;;;;;2.37;2.17;;;;;;;7.27;nan;-23384.16;5030569;28;20180;-66
2023/12/14 09:11:07;;;;;;;3.00;2.77;;;;;;;7.26;nan;-23383.91;5030760;28;20538;-65
2023/12/14 09:13:32;;;;;;;3.20;2.47;;;;;;;7.50;nan;-23073.47;5030313;28;20175;-66
2023/12/14 09:15:57;;;;;;;2.33;2.13;;;;;;;7.69;nan;-23078.44;5032748;28;20210;-66
2023/12/14 09:18:23;;;;;;;2.00;1.83;;;;;;;7.75;nan;-22445.47;5033865;28;20278;-65
2023/12/14 09:20:49;;;;;;;2.95;2.67;;;;;;;7.94;nan;-22132.94;5033501;28;20182;-67
2023/12/14 09:23:16;;;;;;;3.60;3.00;;;;;;;7.99;nan;-22134.06;5033801;28;20180;-65
2023/12/14 09:25:41;;;;;;;2.13;2.03;;;;;;;7.96;nan;-22450.75;5033835;28;20164;-65
2023/12/14 09:28:07;;;;;;;1.73;1.63;;;;;;;8.38;nan;-21826.22;5034034;28;20177;-66
2023/12/14 09:30:32;;;;;;;3.60;3.05;;;;;;;8.30;nan;-21188.75;5033662;28;20306;-66
2023/12/14 09:32:58;;;;;;;3.08;2.75;;;;;;;8.59;nan;-20877.72;5033586;28;20567;-66
2023/12/14 09:35:23;;;;;;;2.92;2.63;;;;;;;8.47;nan;-20239.22;5033002;28;20203;-66
2023/12/14 09:37:49;;;;;;;3.80;2.63;;;;;;;8.31;nan;-18646.31;5036253;28;20179;-65
2023/12/14 09:40:16;;;;;;;1.83;1.67;;;;;;;8.37;nan;-20554.84;5033894;28;20237;-66
2023/12/14 09:42:42;;;;;;;2.13;1.92;;;;;;;8.48;nan;-20875.19;5033914;28;20211;-66
2023/12/14 09:45:09;;;;;;;2.03;1.92;;;;;;;8.40;nan;-20873.44;5033450;28;20202;-65
2023/12/14 09:47:35;;;;;;;2.53;2.30;;;;;;;8.38;nan;-20555.06;5033676;28;20250;-64
2023/12/14 09:50:01;;;;;;;3.78;2.55;;;;;;;8.75;nan;-19609.22;5033344;28;20191;-66
2023/12/14 09:52:26;;;;;;;2.70;2.42;;;;;;;8.76;nan;-17063.44;5033740;28;20214;-66
2023/12/14 09:54:52;;;;;;;2.70;2.53;;;;;;;8.75;nan;-16426.50;5033492;28;20183;-65
2023/12/14 09:57:20;;;;;;;1.55;1.45;;;;;;;8.72;nan;-16744.50;5033538;28;20582;-65
2023/12/14 09:59:55;;;;;;;1.73;1.63;;;;;;;8.77;nan;-17700.38;5033380;28;20203;-65
2023/12/14 10:02:27;;;;;;;2.35;2.05;;;;;;;9.18;nan;-17389.00;5031890;28;20625;-66
2023/12/14 10:04:53;;;;;;;2.00;1.80;;;;;;;9.20;nan;-16433.59;5033600;28;20179;-67
2023/12/14 10:07:21;;;;;;;2.85;2.65;;;;;;;9.53;nan;-16119.88;5033315;28;20179;-65
2023/12/14 10:09:47;;;;;;;2.92;2.10;;;;;;;9.79;nan;-15804.69;5033350;28;20164;-65
2023/12/14 10:12:12;;;;;;;7.47;2.38;;;;;;;9.80;nan;-11015.97;5032479;28;20182;-65
2023/12/14 10:14:38;;;;;;;3.30;2.47;;;;;;;10.21;nan;-11338.44;5033120;28;20718;-66
2023/12/14 10:17:14;;;;;;;2.97;2.58;;;;;;;10.07;nan;-11017.84;5032732;28;20687;-65
2023/12/14 10:19:43;;;;;;;2.17;2.08;;;;;;;10.24;nan;-10379.44;5031312;28;20488;-65
2023/12/14 10:22:09;;;;;;;2.58;2.38;;;;;;;10.41;nan;-10380.44;5032577;28;20163;-65
2023/12/14 10:24:34;;;;;;;3.10;2.33;;;;;;;10.48;nan;-9420.94;5032263;28;20187;-65
2023/12/14 10:27:07;;;;;;;6.47;2.10;;;;;;;10.57;nan;-8140.84;5031529;28;20301;-66
2023/12/14 10:29:34;;;;;;;2.67;1.92;;;;;;;10.63;nan;-8461.16;5032128;28;20171;-65
2023/12/14 10:32:02;;;;;;;2.15;1.95;;;;;;;10.55;nan;-7500.41;5032316;28;20698;-65
2023/12/14 10:34:27;;;;;;;3.42;2.78;;;;;;;10.72;nan;-7820.88;5031515;28;20513;-66
2023/12/14 10:36:53;;;;;;;2.20;2.00;;;;;;;10.96;nan;-6859.84;5031853;28;20183;-66
2023/12/14 10:39:19;;;;;;;2.22;2.03;;;;;;;10.73;nan;-3654.47;5035469;28;20195;-65
2023/12/14 10:41:48;;;;;;;2.38;2.17;;;;;;;10.76;nan;-3654.31;5033432;28;20172;-65
2023/12/14 10:44:16;;;;;;;1.73;1.58;;;;;;;10.92;nan;-2690.88;5031669;28;20202;-65
2023/12/14 10:46:42;;;;;;;3.15;2.58;;;;;;;11.07;nan;200.22;5031953;28;20266;-65
2023/12/14 10:49:08;;;;;;;3.47;3.10;;;;;;;10.89;nan;198.13;5031842;28;20258;-65
2023/12/14 10:51:37;;;;;;;3.55;2.70;;;;;;;10.92;nan;198.47;5032028;28;20255;-65
2023/12/14 10:54:03;;;;;;;5.60;3.38;;;;;;;11.06;nan;200.03;5031930;28;20631;-65
2023/12/14 10:56:28;;;;;;;5.38;2.70;;;;;;;10.98;nan;-764.38;5032113;28;20159;-65
2023/12/14 10:58:58;;;;;;;4.53;3.10;;;;;;;10.89;nan;-1086.34;5031906;28;20207;-67
2023/12/14 11:01:24;;;;;;;4.05;2.08;;;;;;;11.18;nan;-1404.75;5031936;28;20237;-66
2023/12/14 11:03:55;;;;;;;3.72;2.72;;;;;;;11.04;nan;-1406.00;5032036;28;20619;-65
2023/12/14 11:06:22;;;;;;;2.33;2.10;;;;;;;11.14;nan;-1083.94;5032154;28;20262;-65
2023/12/14 11:08:47;;;;;;;3.15;2.70;;;;;;;10.97;nan;-1727.63;5032261;28;20547;-66
2023/12/14 11:11:20;;;;;;;2.05;1.90;;;;;;;10.74;nan;-4936.97;5031713;28;20176;-65
2023/12/14 11:13:50;;;;;;;2.60;2.22;;;;;;;10.78;nan;-7180.25;5032195;28;20163;-65
2023/12/14 11:16:15;;;;;;;4.38;2.45;;;;;;;10.38;nan;-7500.25;5032215;28;20631;-65
2023/12/14 11:18:41;;;;;;;2.10;1.80;;;;;;;10.31;nan;-8780.34;5030657;28;20211;-65
2023/12/14 11:21:06;;;;;;;1.88;1.77;;;;;;;10.39;nan;-10700.13;5031526;28;20167;-65
2023/12/14 11:23:38;;;;;;;2.65;2.17;;;;;;;10.35;nan;-12298.56;5031240;28;20179;-65
2023/12/14 11:26:08;;;;;;;3.00;1.77;;;;;;;10.41;nan;-12618.72;5031226;28;20182;-65
2023/12/14 11:28:36;;;;;;;2.45;2.22;;;;;;;10.39;nan;-13577.38;5031392;28;20190;-65
2023/12/14 11:31:06;;;;;;;2.85;2.30;;;;;;;10.30;nan;-13895.84;5030584;28;20227;-64
2023/12/14 11:33:35;;;;;;;1.83;1.63;;;;;;;10.48;nan;-12939.13;5030960;28;20183;-64
2023/12/14 11:36:03;;;;;;;2.55;2.35;;;;;;;10.25;nan;-12617.28;5031291;28;20231;-65
2023/12/14 11:38:29;;;;;;;2.75;1.92;;;;;;;10.21;nan;-12936.44;5029976;28;20246;-64
2023/12/14 11:40:55;;;;;;;4.32;2.55;;;;;;;10.12;nan;-14213.19;5034986;28;20175;-65
2023/12/14 11:43:21;;;;;;;4.18;2.13;;;;;;;10.33;nan;-14215.72;5030901;28;20643;-64
2023/12/14 11:45:47;;;;;;;2.30;2.08;;;;;;;10.17;nan;-14533.13;5031052;28;20167;-67